Аэропорт: Оренбург-Центральный. Оренбург

ICAO: UWOO

METAR:
2018/09/23 11:00
UWOO 231100Z 05002MPS 340V140 9999 BKN036 23/14 Q1019 R26/CLRD65 NOSIG RMK QFE754/1005
METAR:
2018/09/23 09:24
TAF UWOO 230755Z 2309/2409 27003G08MPS 9999 SCT020CB BKN040 TX24/2311Z TN10/2401Z 
     FM231500 16003G08MPS 3100 BR BKN011 
      TEMPO 2320/2403 VRB01MPS 0500 FG VV002 
     FM240500 18006MPS 9999 SCT020CB BKN040